createdAt,value
2024-05-09T00:02:20.639Z,17.00
2024-05-09T00:05:29.559Z,17.67
2024-05-09T00:08:35.243Z,19.00
2024-05-09T00:11:41.469Z,18.33
2024-05-09T00:14:47.318Z,15.67
2024-05-09T00:17:53.852Z,16.00
2024-05-09T00:21:02.665Z,18.67
2024-05-09T00:24:09.237Z,21.33
2024-05-09T00:27:14.962Z,16.33
2024-05-09T00:30:28.218Z,27.67
2024-05-09T00:33:39.539Z,24.00
2024-05-09T00:36:48.302Z,26.67
2024-05-09T00:39:53.869Z,31.00
2024-05-09T00:42:59.870Z,33.00
2024-05-09T00:46:05.870Z,27.67
2024-05-09T00:49:12.593Z,26.33
2024-05-09T00:52:21.054Z,33.25
2024-05-09T00:55:27.616Z,36.75
2024-05-09T00:58:33.538Z,37.00
2024-05-09T01:01:39.933Z,37.50
2024-05-09T01:04:45.746Z,41.75
2024-05-09T01:07:54.603Z,35.75
2024-05-09T01:11:00.320Z,38.75
2024-05-09T01:14:06.531Z,42.25
2024-05-09T01:17:12.286Z,37.25
2024-05-09T01:20:22.924Z,38.00
2024-05-09T01:23:36.237Z,41.75
2024-05-09T01:26:42.571Z,41.50
2024-05-09T01:29:48.210Z,34.50
2024-05-09T01:32:54.523Z,37.75
2024-05-09T01:36:00.285Z,41.00
2024-05-09T01:39:10.172Z,38.25
2024-05-09T01:42:16.594Z,38.00
2024-05-09T01:45:22.656Z,40.25
2024-05-09T01:48:28.352Z,43.75
2024-05-09T01:51:34.477Z,46.75
2024-05-09T01:54:42.900Z,40.75
2024-05-09T01:57:49.055Z,42.00
2024-05-09T02:00:56.260Z,44.50
2024-05-09T02:04:02.735Z,42.25
2024-05-09T02:07:08.871Z,40.00
2024-05-09T02:10:23.498Z,42.75
2024-05-09T02:13:35.864Z,48.50
2024-05-09T02:16:42.028Z,36.50
2024-05-09T02:19:47.733Z,39.50
2024-05-09T02:22:54.092Z,39.00
2024-05-09T02:26:02.473Z,40.75
2024-05-09T02:29:08.536Z,34.25
2024-05-09T02:32:14.841Z,30.67
2024-05-09T02:35:21.051Z,31.67
2024-05-09T02:38:27.141Z,34.67
2024-05-09T02:41:33.397Z,38.75
2024-05-09T02:44:39.066Z,30.00
2024-05-09T02:47:42.534Z,32.67
2024-05-09T02:50:48.239Z,29.00
2024-05-09T02:53:51.673Z,38.33
2024-05-09T02:56:59.979Z,31.00
2024-05-09T03:00:03.688Z,26.67
2024-05-09T03:03:14.063Z,29.67
2024-05-09T03:06:19.972Z,29.00
2024-05-09T03:09:26.755Z,30.33
2024-05-09T03:12:33.613Z,33.67
2024-05-09T03:15:40.208Z,29.33
2024-05-09T03:18:46.578Z,27.67
2024-05-09T03:21:49.604Z,27.67
2024-05-09T03:24:55.633Z,27.33
2024-05-09T03:28:01.358Z,28.00
2024-05-09T03:31:08.063Z,24.67
2024-05-09T03:34:14.013Z,17.00
2024-05-09T03:37:20.014Z,19.00
2024-05-09T03:40:28.988Z,22.33
2024-05-09T03:43:39.324Z,17.67
2024-05-09T03:46:44.981Z,21.67
2024-05-09T03:49:48.391Z,17.33
2024-05-09T03:52:55.181Z,20.00
2024-05-09T03:55:58.611Z,21.33
2024-05-09T03:59:06.979Z,21.00
2024-05-09T04:02:13.154Z,19.33
2024-05-09T04:05:16.732Z,23.67
2024-05-09T04:08:53.905Z,20.33
2024-05-09T04:12:23.905Z,22.33
2024-05-09T04:15:29.998Z,21.00
2024-05-09T04:18:36.177Z,19.67
2024-05-09T04:21:39.160Z,20.67
2024-05-09T04:24:45.379Z,25.33
2024-05-09T04:27:48.347Z,21.67
2024-05-09T04:30:57.160Z,23.33
2024-05-09T04:34:00.284Z,20.67
2024-05-09T04:37:07.239Z,24.00
2024-05-09T04:40:20.518Z,25.33
2024-05-09T04:43:30.272Z,19.67
2024-05-09T04:46:35.938Z,25.33
2024-05-09T04:49:45.355Z,26.33
2024-05-09T04:52:48.421Z,22.00
2024-05-09T04:55:54.435Z,19.00
2024-05-09T04:59:00.056Z,23.33
2024-05-09T05:02:06.123Z,23.33
2024-05-09T05:05:12.183Z,26.67
2024-05-09T05:08:19.599Z,21.33
2024-05-09T05:11:25.501Z,22.33
2024-05-09T05:14:29.109Z,18.33
2024-05-09T05:17:37.699Z,20.67
2024-05-09T05:20:41.676Z,18.00
2024-05-09T05:23:47.351Z,22.00
2024-05-09T05:26:50.711Z,22.67
2024-05-09T05:29:56.252Z,23.33
2024-05-09T05:33:05.220Z,18.67
2024-05-09T05:36:11.050Z,20.33
2024-05-09T05:39:17.096Z,18.33
2024-05-09T05:42:20.051Z,17.67
2024-05-09T05:45:26.073Z,19.00
2024-05-09T05:48:34.944Z,23.00
2024-05-09T05:51:38.357Z,18.00
2024-05-09T05:54:43.904Z,20.67
2024-05-09T05:57:49.991Z,17.00
2024-05-09T06:00:53.880Z,17.67
2024-05-09T06:04:02.726Z,15.33
2024-05-09T06:07:05.890Z,17.33
2024-05-09T06:10:17.588Z,16.67
2024-05-09T06:13:24.703Z,16.33
2024-05-09T06:16:30.787Z,18.00
2024-05-09T06:19:36.520Z,16.67
2024-05-09T06:22:42.643Z,21.33
2024-05-09T06:25:46.108Z,15.00
2024-05-09T06:28:52.292Z,19.00
2024-05-09T06:31:57.109Z,19.00
2024-05-09T06:35:08.849Z,16.00
2024-05-09T06:38:12.236Z,16.00
2024-05-09T06:41:18.674Z,16.33
2024-05-09T06:44:24.373Z,12.00
2024-05-09T06:47:27.985Z,13.00
2024-05-09T06:50:38.437Z,18.00
2024-05-09T06:53:43.004Z,13.67
2024-05-09T06:56:48.678Z,13.00
2024-05-09T06:59:52.415Z,17.00
2024-05-09T07:03:00.110Z,30.33
2024-05-09T07:06:10.559Z,17.67
2024-05-09T07:09:13.862Z,16.33
2024-05-09T07:12:20.070Z,20.00
2024-05-09T07:15:23.237Z,13.33
2024-05-09T07:18:29.900Z,10.00
2024-05-09T07:21:35.671Z,14.00
2024-05-09T07:24:41.792Z,16.67
2024-05-09T07:27:47.035Z,12.33
2024-05-09T07:30:53.350Z,15.33
2024-05-09T07:33:56.287Z,19.00
2024-05-09T07:37:06.299Z,15.00
2024-05-09T07:40:12.081Z,22.33
2024-05-09T07:43:23.713Z,24.33
2024-05-09T07:47:20.779Z,22.00
2024-05-09T07:51:32.820Z,25.33
2024-05-09T07:53:38.726Z,24.67
2024-05-09T07:56:47.113Z,20.33
2024-05-09T07:59:50.144Z,23.00
2024-05-09T08:02:56.391Z,23.00
2024-05-09T08:05:59.306Z,28.33
2024-05-09T08:09:13.591Z,16.00
2024-05-09T08:12:19.953Z,20.00
2024-05-09T08:15:33.292Z,25.00
2024-05-09T08:18:41.478Z,20.33
2024-05-09T08:21:48.691Z,21.33
2024-05-09T08:24:54.742Z,18.00
2024-05-09T08:28:00.518Z,25.00
2024-05-09T08:31:06.865Z,20.67
2024-05-09T08:34:13.057Z,18.00
2024-05-09T08:37:22.317Z,20.00
2024-05-09T08:40:36.316Z,20.67
2024-05-09T08:43:44.599Z,20.33
2024-05-09T08:46:48.272Z,17.33
2024-05-09T08:49:58.505Z,20.33
2024-05-09T08:53:04.379Z,25.67
2024-05-09T08:56:12.196Z,22.00
2024-05-09T08:59:23.812Z,21.00
2024-05-09T09:02:30.747Z,23.00
2024-05-09T09:05:37.272Z,20.33
2024-05-09T09:08:43.800Z,19.33
2024-05-09T09:11:52.123Z,20.00
2024-05-09T09:14:55.583Z,21.67
2024-05-09T09:18:01.979Z,21.67
2024-05-09T09:21:10.222Z,22.00
2024-05-09T09:24:22.738Z,20.33
2024-05-09T09:27:37.472Z,22.33
2024-05-09T09:30:41.642Z,20.33
2024-05-09T09:33:47.982Z,21.00
2024-05-09T09:36:56.110Z,19.00
2024-05-09T09:40:02.600Z,15.67
2024-05-09T09:43:14.557Z,20.00
2024-05-09T09:46:22.850Z,14.00
2024-05-09T09:49:26.576Z,12.00
2024-05-09T09:52:33.007Z,11.67
2024-05-09T09:55:37.503Z,10.33
2024-05-09T09:58:48.380Z,11.00
2024-05-09T10:01:51.656Z,13.33
2024-05-09T10:04:58.099Z,10.67
2024-05-09T10:08:05.427Z,14.33
2024-05-09T10:11:11.569Z,15.00
2024-05-09T10:14:20.890Z,12.00
2024-05-09T10:17:27.783Z,12.00
